PST,Max TemperatureF,Mean TemperatureF,Min TemperatureF,Max Dew PointF,MeanDew PointF,Min DewpointF,Max Humidity, Mean Humidity, Min Humidity, Max Sea Level PressureIn, Mean Sea Level PressureIn, Min Sea Level PressureIn, Max VisibilityMiles, Mean VisibilityMiles, Min VisibilityMiles, Max Wind SpeedMPH, Mean Wind SpeedMPH, Max Gust SpeedMPH,PrecipitationIn, CloudCover, Events, WindDirDegrees
2011-11-1,46,36,26,28,20,5,81,56,20,30.48,30.37,30.24,10,10,8,13,4,,0.00,0,,235
2011-11-2,51,36,21,25,20,16,80,57,26,30.47,30.26,29.91,10,9,2,12,6,,0.00,0,,80
2011-11-3,44,36,28,32,25,19,75,62,49,29.88,29.79,29.75,10,10,7,12,7,,0.00,7,,24
2011-11-4,39,36,33,34,31,28,87,80,70,29.75,29.70,29.68,10,8,2,10,4,,0.00,8,,287
2011-11-5,37,30,24,27,22,18,80,69,56,29.85,29.80,29.75,10,10,7,9,3,,0.00,4,,204
2011-11-6,39,29,19,25,20,12,86,69,42,29.99,29.91,29.85,10,9,0,6,2,,0.00,2,,124
2011-11-7,37,28,19,30,24,12,87,75,65,30.19,30.16,30.13,10,10,5,10,3,,0.00,7,,180
2011-11-8,44,37,30,34,30,25,86,76,61,30.36,30.26,30.18,10,10,6,9,5,,0.00,6,,245
2011-11-9,48,38,28,34,27,19,87,71,32,30.45,30.39,30.30,10,7,0,12,5,,0.00,3,,85
2011-11-10,50,38,26,32,25,19,86,68,43,30.27,30.13,29.98,10,10,1,9,5,,0.00,0,,129
2011-11-11,48,36,23,34,25,16,86,63,40,29.93,29.67,29.41,10,10,9,34,7,43,0.14,3,,176
2011-11-12,37,34,30,28,26,23,87,76,60,29.73,29.62,29.39,10,8,1,26,10,34,0.22,8,,202
2011-11-13,46,40,33,30,27,16,81,64,29,29.64,29.58,29.47,10,10,5,23,11,33,0.10,4,,259
2011-11-14,44,37,28,30,24,12,75,61,38,29.92,29.71,29.60,10,10,5,23,12,31,0.00,6,,283
2011-11-15,37,27,17,19,13,7,73,54,28,30.29,30.14,29.97,10,10,10,20,7,25,0.00,3,,244
2011-11-16,33,22,12,30,15,5,87,68,55,30.30,30.12,29.68,10,8,2,14,6,,0.03,4,,50
2011-11-17,42,37,32,36,27,19,87,68,45,29.74,29.67,29.54,10,10,1,34,14,44,0.02,4,,218
2011-11-18,33,27,21,28,22,10,93,78,63,29.67,29.56,29.51,10,4,0,23,6,29,0.44,8,,26
2011-11-19,23,21,19,18,12,9,93,70,63,29.89,29.81,29.72,10,9,2,18,15,23,0.00,8,,34
2011-11-20,28,24,19,21,18,10,86,76,68,29.95,29.91,29.89,10,10,9,14,9,,0.00,8,,44
2011-11-21,37,30,24,32,25,18,87,77,70,29.89,29.85,29.82,10,9,2,17,9,21,0.10,8,,132
2011-11-22,46,40,35,37,34,28,87,76,65,29.80,29.72,29.68,10,10,10,24,12,31,0.16,8,,184
2011-11-23,53,48,44,39,34,30,76,58,41,29.69,29.62,29.56,10,10,10,30,13,41,0.03,8,,205
2011-11-24,41,37,33,34,29,23,81,72,61,29.83,29.76,29.66,10,10,9,17,8,22,0.12,7,,185
2011-11-25,41,34,28,34,24,18,87,64,49,30.54,30.14,29.68,10,10,10,23,15,34,0.00,2,,235
2011-11-26,37,32,26,27,22,19,75,68,56,30.54,30.47,30.36,10,10,10,13,6,,0.00,7,,49
2011-11-27,53,40,26,36,26,19,80,60,26,30.31,30.11,29.96,10,10,10,30,10,43,0.03,3,,163
2011-11-28,42,34,26,32,27,-18,87,74,12,30.41,30.36,30.23,10,10,7,12,5,,0.00,3,,199
2011-11-29,39,32,26,34,29,-17,100,84,13,30.37,30.22,30.04,10,7,0,7,3,,0.01,8,,58
2011-11-30,42,33,24,32,28,19,87,79,61,30.63,30.34,30.10,10,8,5,16,9,21,0.00,4,,245